sensor_id;sensor_type;location;lat;lon;timestamp;temperature;humidity
7972;DHT22;4031;49.758;6.120;2022-10-22T00:00:12;14.70;99.90
7972;DHT22;4031;49.758;6.120;2022-10-22T00:02:39;14.70;99.90
7972;DHT22;4031;49.758;6.120;2022-10-22T00:05:06;14.70;99.90
7972;DHT22;4031;49.758;6.120;2022-10-22T00:07:32;14.70;99.90
7972;DHT22;4031;49.758;6.120;2022-10-22T00:09:58;14.70;99.90
7972;DHT22;4031;49.758;6.120;2022-10-22T00:12:24;14.70;99.90
7972;DHT22;4031;49.758;6.120;2022-10-22T00:14:50;14.70;99.90
7972;DHT22;4031;49.758;6.120;2022-10-22T00:17:16;14.60;99.90
7972;DHT22;4031;49.758;6.120;2022-10-22T00:19:42;14.60;99.90
7972;DHT22;4031;49.758;6.120;2022-10-22T00:22:08;14.60;99.90
7972;DHT22;4031;49.758;6.120;2022-10-22T00:24:36;14.60;99.90
7972;DHT22;4031;49.758;6.120;2022-10-22T00:27:03;14.60;99.90
7972;DHT22;4031;49.758;6.120;2022-10-22T00:29:29;14.50;99.90
7972;DHT22;4031;49.758;6.120;2022-10-22T00:31:55;14.50;99.90
7972;DHT22;4031;49.758;6.120;2022-10-22T00:34:21;14.40;99.90
7972;DHT22;4031;49.758;6.120;2022-10-22T00:36:48;14.40;99.90
7972;DHT22;4031;49.758;6.120;2022-10-22T00:39:16;14.40;99.90
7972;DHT22;4031;49.758;6.120;2022-10-22T00:41:44;14.50;99.90
7972;DHT22;4031;49.758;6.120;2022-10-22T00:47:40;14.50;99.90
7972;DHT22;4031;49.758;6.120;2022-10-22T00:50:13;14.50;99.90
7972;DHT22;4031;49.758;6.120;2022-10-22T00:52:41;14.60;99.90
7972;DHT22;4031;49.758;6.120;2022-10-22T00:55:07;14.50;99.90
7972;DHT22;4031;49.758;6.120;2022-10-22T00:57:35;14.60;99.90
7972;DHT22;4031;49.758;6.120;2022-10-22T01:00:02;14.60;99.90
7972;DHT22;4031;49.758;6.120;2022-10-22T01:02:28;14.60;99.90
7972;DHT22;4031;49.758;6.120;2022-10-22T01:04:54;14.60;99.90
7972;DHT22;4031;49.758;6.120;2022-10-22T01:07:21;14.60;99.90
7972;DHT22;4031;49.758;6.120;2022-10-22T01:09:56;14.60;99.90
7972;DHT22;4031;49.758;6.120;2022-10-22T01:13:11;14.50;99.90
7972;DHT22;4031;49.758;6.120;2022-10-22T01:16:13;14.50;99.90
7972;DHT22;4031;49.758;6.120;2022-10-22T01:19:12;14.50;99.90
7972;DHT22;4031;49.758;6.120;2022-10-22T01:21:42;14.40;99.90
7972;DHT22;4031;49.758;6.120;2022-10-22T01:30:05;14.30;99.90
7972;DHT22;4031;49.758;6.120;2022-10-22T01:32:45;14.30;99.90
7972;DHT22;4031;49.758;6.120;2022-10-22T01:35:18;14.20;99.90
7972;DHT22;4031;49.758;6.120;2022-10-22T01:38:06;14.10;99.90
7972;DHT22;4031;49.758;6.120;2022-10-22T01:40:34;14.10;99.90
7972;DHT22;4031;49.758;6.120;2022-10-22T01:43:03;14.10;99.90
7972;DHT22;4031;49.758;6.120;2022-10-22T01:45:34;14.10;99.90
7972;DHT22;4031;49.758;6.120;2022-10-22T01:48:14;14.10;99.90
7972;DHT22;4031;49.758;6.120;2022-10-22T01:53:53;14.20;99.90
7972;DHT22;4031;49.758;6.120;2022-10-22T01:59:21;14.20;99.90
7972;DHT22;4031;49.758;6.120;2022-10-22T02:02:12;14.10;99.90
7972;DHT22;4031;49.758;6.120;2022-10-22T02:04:49;14.10;99.90
7972;DHT22;4031;49.758;6.120;2022-10-22T02:07:20;14.10;99.90
7972;DHT22;4031;49.758;6.120;2022-10-22T02:09:48;14.10;99.90
7972;DHT22;4031;49.758;6.120;2022-10-22T02:12:16;14.00;99.90
7972;DHT22;4031;49.758;6.120;2022-10-22T02:14:45;14.00;99.90
7972;DHT22;4031;49.758;6.120;2022-10-22T02:17:17;14.00;99.90
7972;DHT22;4031;49.758;6.120;2022-10-22T02:19:56;14.00;99.90
7972;DHT22;4031;49.758;6.120;2022-10-22T02:22:25;13.90;99.90
7972;DHT22;4031;49.758;6.120;2022-10-22T02:24:51;13.90;99.90
7972;DHT22;4031;49.758;6.120;2022-10-22T02:27:29;13.80;99.90
7972;DHT22;4031;49.758;6.120;2022-10-22T02:30:11;13.80;99.90
7972;DHT22;4031;49.758;6.120;2022-10-22T02:35:16;13.60;99.90
7972;DHT22;4031;49.758;6.120;2022-10-22T02:37:44;13.70;99.90
7972;DHT22;4031;49.758;6.120;2022-10-22T02:40:11;13.50;99.90
7972;DHT22;4031;49.758;6.120;2022-10-22T02:42:38;13.40;99.90
7972;DHT22;4031;49.758;6.120;2022-10-22T02:45:05;13.40;99.90
7972;DHT22;4031;49.758;6.120;2022-10-22T02:47:31;13.40;99.90
7972;DHT22;4031;49.758;6.120;2022-10-22T02:49:57;13.40;99.90
7972;DHT22;4031;49.758;6.120;2022-10-22T02:52:23;13.30;99.90
7972;DHT22;4031;49.758;6.120;2022-10-22T02:54:49;13.30;99.90
7972;DHT22;4031;49.758;6.120;2022-10-22T02:57:14;13.30;99.90
7972;DHT22;4031;49.758;6.120;2022-10-22T02:59:40;13.20;99.90
7972;DHT22;4031;49.758;6.120;2022-10-22T03:02:06;13.20;99.90
7972;DHT22;4031;49.758;6.120;2022-10-22T03:04:32;13.00;99.90
7972;DHT22;4031;49.758;6.120;2022-10-22T03:06:58;13.00;99.90
7972;DHT22;4031;49.758;6.120;2022-10-22T03:09:24;13.00;99.90
7972;DHT22;4031;49.758;6.120;2022-10-22T03:11:49;13.00;99.90
7972;DHT22;4031;49.758;6.120;2022-10-22T03:14:15;13.00;99.90
7972;DHT22;4031;49.758;6.120;2022-10-22T03:16:41;13.00;99.90
7972;DHT22;4031;49.758;6.120;2022-10-22T03:19:07;13.10;99.90
7972;DHT22;4031;49.758;6.120;2022-10-22T03:21:37;13.00;99.90
7972;DHT22;4031;49.758;6.120;2022-10-22T03:24:19;13.00;99.90
7972;DHT22;4031;49.758;6.120;2022-10-22T03:26:49;13.00;99.90
7972;DHT22;4031;49.758;6.120;2022-10-22T03:29:17;12.90;99.90
7972;DHT22;4031;49.758;6.120;2022-10-22T03:31:44;12.80;99.90
7972;DHT22;4031;49.758;6.120;2022-10-22T03:34:09;12.70;99.90
7972;DHT22;4031;49.758;6.120;2022-10-22T03:36:38;12.70;99.90
7972;DHT22;4031;49.758;6.120;2022-10-22T03:39:06;12.70;99.90
7972;DHT22;4031;49.758;6.120;2022-10-22T03:41:33;12.70;99.90
7972;DHT22;4031;49.758;6.120;2022-10-22T03:44:00;12.70;99.90
7972;DHT22;4031;49.758;6.120;2022-10-22T03:46:27;12.50;99.90
7972;DHT22;4031;49.758;6.120;2022-10-22T03:48:52;12.50;99.90
7972;DHT22;4031;49.758;6.120;2022-10-22T03:51:18;12.40;99.90
7972;DHT22;4031;49.758;6.120;2022-10-22T03:53:44;12.30;99.90
7972;DHT22;4031;49.758;6.120;2022-10-22T03:56:11;12.10;99.90
7972;DHT22;4031;49.758;6.120;2022-10-22T03:58:38;12.10;99.90
7972;DHT22;4031;49.758;6.120;2022-10-22T04:01:06;12.10;99.90
7972;DHT22;4031;49.758;6.120;2022-10-22T04:03:35;11.90;99.90
7972;DHT22;4031;49.758;6.120;2022-10-22T04:06:03;12.00;99.90
7972;DHT22;4031;49.758;6.120;2022-10-22T04:08:33;12.00;99.90
7972;DHT22;4031;49.758;6.120;2022-10-22T04:10:59;12.00;99.90
7972;DHT22;4031;49.758;6.120;2022-10-22T04:13:25;12.00;99.90
7972;DHT22;4031;49.758;6.120;2022-10-22T04:15:51;12.00;99.90
7972;DHT22;4031;49.758;6.120;2022-10-22T04:18:21;12.10;99.90
7972;DHT22;4031;49.758;6.120;2022-10-22T04:20:50;12.00;99.90
7972;DHT22;4031;49.758;6.120;2022-10-22T04:23:16;11.90;99.90
7972;DHT22;4031;49.758;6.120;2022-10-22T04:25:41;11.80;99.90
7972;DHT22;4031;49.758;6.120;2022-10-22T04:28:08;11.80;99.90
7972;DHT22;4031;49.758;6.120;2022-10-22T04:30:35;11.80;99.90
7972;DHT22;4031;49.758;6.120;2022-10-22T04:33:02;11.70;99.90
7972;DHT22;4031;49.758;6.120;2022-10-22T04:35:28;11.60;99.90
7972;DHT22;4031;49.758;6.120;2022-10-22T04:37:54;11.60;99.90
7972;DHT22;4031;49.758;6.120;2022-10-22T04:40:21;11.80;99.90
7972;DHT22;4031;49.758;6.120;2022-10-22T04:42:46;11.90;99.90
7972;DHT22;4031;49.758;6.120;2022-10-22T04:45:12;11.90;99.90
7972;DHT22;4031;49.758;6.120;2022-10-22T04:47:39;11.80;99.90
7972;DHT22;4031;49.758;6.120;2022-10-22T04:50:06;11.80;99.90
7972;DHT22;4031;49.758;6.120;2022-10-22T04:52:32;11.70;99.90
7972;DHT22;4031;49.758;6.120;2022-10-22T04:54:57;11.60;99.90
7972;DHT22;4031;49.758;6.120;2022-10-22T04:57:23;11.60;99.90
7972;DHT22;4031;49.758;6.120;2022-10-22T04:59:49;11.50;99.90
7972;DHT22;4031;49.758;6.120;2022-10-22T05:02:14;11.40;99.90
7972;DHT22;4031;49.758;6.120;2022-10-22T05:04:43;11.40;99.90
7972;DHT22;4031;49.758;6.120;2022-10-22T05:07:09;11.30;99.90
7972;DHT22;4031;49.758;6.120;2022-10-22T05:09:34;11.30;99.90
7972;DHT22;4031;49.758;6.120;2022-10-22T05:12:00;11.10;99.90
7972;DHT22;4031;49.758;6.120;2022-10-22T05:14:26;11.10;99.90
7972;DHT22;4031;49.758;6.120;2022-10-22T05:16:52;11.00;99.90
7972;DHT22;4031;49.758;6.120;2022-10-22T05:19:29;11.00;99.90
7972;DHT22;4031;49.758;6.120;2022-10-22T05:21:58;11.00;99.90
7972;DHT22;4031;49.758;6.120;2022-10-22T05:24:26;11.00;99.90
7972;DHT22;4031;49.758;6.120;2022-10-22T05:26:54;11.10;99.90
7972;DHT22;4031;49.758;6.120;2022-10-22T05:29:21;11.10;99.90
7972;DHT22;4031;49.758;6.120;2022-10-22T05:31:48;11.20;99.90
7972;DHT22;4031;49.758;6.120;2022-10-22T05:34:14;11.30;99.90
7972;DHT22;4031;49.758;6.120;2022-10-22T05:36:41;11.20;99.90
7972;DHT22;4031;49.758;6.120;2022-10-22T05:39:07;11.20;99.90
7972;DHT22;4031;49.758;6.120;2022-10-22T05:41:34;11.10;99.90
7972;DHT22;4031;49.758;6.120;2022-10-22T05:44:00;11.00;99.90
7972;DHT22;4031;49.758;6.120;2022-10-22T05:46:28;10.90;99.90
7972;DHT22;4031;49.758;6.120;2022-10-22T05:49:00;10.80;99.90
7972;DHT22;4031;49.758;6.120;2022-10-22T05:51:29;10.80;99.90
7972;DHT22;4031;49.758;6.120;2022-10-22T05:54:01;10.80;99.90
7972;DHT22;4031;49.758;6.120;2022-10-22T05:56:30;10.80;99.90
7972;DHT22;4031;49.758;6.120;2022-10-22T05:58:57;10.90;99.90
7972;DHT22;4031;49.758;6.120;2022-10-22T06:01:28;10.80;99.90
7972;DHT22;4031;49.758;6.120;2022-10-22T06:03:58;10.70;99.90
7972;DHT22;4031;49.758;6.120;2022-10-22T06:06:46;10.60;99.90
7972;DHT22;4031;49.758;6.120;2022-10-22T06:09:17;10.50;99.90
7972;DHT22;4031;49.758;6.120;2022-10-22T06:11:45;10.50;99.90
7972;DHT22;4031;49.758;6.120;2022-10-22T06:14:11;10.50;99.90
7972;DHT22;4031;49.758;6.120;2022-10-22T06:16:37;10.40;99.90
7972;DHT22;4031;49.758;6.120;2022-10-22T06:19:03;10.40;99.90
7972;DHT22;4031;49.758;6.120;2022-10-22T06:21:30;10.50;99.90
7972;DHT22;4031;49.758;6.120;2022-10-22T06:23:57;10.40;99.90
7972;DHT22;4031;49.758;6.120;2022-10-22T06:26:24;10.40;99.90
7972;DHT22;4031;49.758;6.120;2022-10-22T06:28:50;10.50;99.90
7972;DHT22;4031;49.758;6.120;2022-10-22T06:31:16;10.60;99.90
7972;DHT22;4031;49.758;6.120;2022-10-22T06:33:42;10.80;99.90
7972;DHT22;4031;49.758;6.120;2022-10-22T06:36:13;10.80;99.90
7972;DHT22;4031;49.758;6.120;2022-10-22T06:38:40;10.90;99.90
7972;DHT22;4031;49.758;6.120;2022-10-22T06:41:09;11.00;99.90
7972;DHT22;4031;49.758;6.120;2022-10-22T06:43:37;11.20;99.90
7972;DHT22;4031;49.758;6.120;2022-10-22T06:46:06;11.30;99.90
7972;DHT22;4031;49.758;6.120;2022-10-22T06:48:34;11.40;99.90
7972;DHT22;4031;49.758;6.120;2022-10-22T06:51:09;11.50;99.90
7972;DHT22;4031;49.758;6.120;2022-10-22T06:53:44;11.60;99.90
7972;DHT22;4031;49.758;6.120;2022-10-22T06:56:25;11.70;99.90
7972;DHT22;4031;49.758;6.120;2022-10-22T06:59:06;11.80;99.90
7972;DHT22;4031;49.758;6.120;2022-10-22T07:01:37;12.00;99.90
7972;DHT22;4031;49.758;6.120;2022-10-22T07:04:07;12.20;99.90
7972;DHT22;4031;49.758;6.120;2022-10-22T07:06:37;12.30;99.90
7972;DHT22;4031;49.758;6.120;2022-10-22T07:09:03;12.30;99.90
7972;DHT22;4031;49.758;6.120;2022-10-22T07:11:39;12.40;99.90
7972;DHT22;4031;49.758;6.120;2022-10-22T07:14:32;12.40;99.90
7972;DHT22;4031;49.758;6.120;2022-10-22T07:17:11;12.40;99.90
7972;DHT22;4031;49.758;6.120;2022-10-22T07:19:47;12.50;99.90
7972;DHT22;4031;49.758;6.120;2022-10-22T07:22:24;12.60;99.90
7972;DHT22;4031;49.758;6.120;2022-10-22T07:24:56;12.80;99.90
7972;DHT22;4031;49.758;6.120;2022-10-22T07:27:22;12.90;99.90
7972;DHT22;4031;49.758;6.120;2022-10-22T07:29:48;12.90;99.90
7972;DHT22;4031;49.758;6.120;2022-10-22T07:32:14;13.00;99.90
7972;DHT22;4031;49.758;6.120;2022-10-22T07:34:40;13.10;99.90
7972;DHT22;4031;49.758;6.120;2022-10-22T07:37:08;13.10;99.90
7972;DHT22;4031;49.758;6.120;2022-10-22T07:39:35;13.10;99.90
7972;DHT22;4031;49.758;6.120;2022-10-22T07:42:01;13.20;99.90
7972;DHT22;4031;49.758;6.120;2022-10-22T07:44:33;13.10;99.90
7972;DHT22;4031;49.758;6.120;2022-10-22T07:47:18;13.10;99.90
7972;DHT22;4031;49.758;6.120;2022-10-22T07:50:08;13.20;99.90
7972;DHT22;4031;49.758;6.120;2022-10-22T07:52:38;13.20;99.90
7972;DHT22;4031;49.758;6.120;2022-10-22T07:55:16;13.30;99.90
7972;DHT22;4031;49.758;6.120;2022-10-22T07:57:51;13.30;99.90
7972;DHT22;4031;49.758;6.120;2022-10-22T08:00:26;13.30;99.90
7972;DHT22;4031;49.758;6.120;2022-10-22T08:03:28;13.40;99.90
7972;DHT22;4031;49.758;6.120;2022-10-22T08:06:04;13.50;99.90
7972;DHT22;4031;49.758;6.120;2022-10-22T08:08:42;13.50;99.90
7972;DHT22;4031;49.758;6.120;2022-10-22T08:11:22;13.70;99.90
7972;DHT22;4031;49.758;6.120;2022-10-22T08:14:11;13.90;99.90
7972;DHT22;4031;49.758;6.120;2022-10-22T08:16:43;14.00;99.90
7972;DHT22;4031;49.758;6.120;2022-10-22T08:19:18;14.30;99.90
7972;DHT22;4031;49.758;6.120;2022-10-22T08:22:03;14.80;99.90
7972;DHT22;4031;49.758;6.120;2022-10-22T08:24:32;15.40;99.90
7972;DHT22;4031;49.758;6.120;2022-10-22T08:27:01;15.60;99.90
7972;DHT22;4031;49.758;6.120;2022-10-22T08:29:30;15.90;99.90
7972;DHT22;4031;49.758;6.120;2022-10-22T08:31:59;16.30;99.90
7972;DHT22;4031;49.758;6.120;2022-10-22T08:34:32;16.70;99.90
7972;DHT22;4031;49.758;6.120;2022-10-22T08:37:08;16.90;99.90
7972;DHT22;4031;49.758;6.120;2022-10-22T08:39:39;16.80;99.90
7972;DHT22;4031;49.758;6.120;2022-10-22T08:42:55;16.90;99.90
7972;DHT22;4031;49.758;6.120;2022-10-22T08:48:56;16.70;99.90
7972;DHT22;4031;49.758;6.120;2022-10-22T08:51:35;16.80;99.90
7972;DHT22;4031;49.758;6.120;2022-10-22T08:54:53;17.20;99.90
7972;DHT22;4031;49.758;6.120;2022-10-22T09:00:51;18.60;99.90
7972;DHT22;4031;49.758;6.120;2022-10-22T09:03:51;19.70;99.90
7972;DHT22;4031;49.758;6.120;2022-10-22T09:06:40;19.80;99.90
7972;DHT22;4031;49.758;6.120;2022-10-22T09:09:19;19.50;99.90
7972;DHT22;4031;49.758;6.120;2022-10-22T09:11:50;19.40;99.90
7972;DHT22;4031;49.758;6.120;2022-10-22T09:14:22;20.10;99.90
7972;DHT22;4031;49.758;6.120;2022-10-22T09:17:13;20.90;99.90
7972;DHT22;4031;49.758;6.120;2022-10-22T09:22:48;22.10;99.90
7972;DHT22;4031;49.758;6.120;2022-10-22T09:25:28;22.90;99.90
7972;DHT22;4031;49.758;6.120;2022-10-22T09:28:13;22.60;99.90
7972;DHT22;4031;49.758;6.120;2022-10-22T09:30:39;22.70;99.90
7972;DHT22;4031;49.758;6.120;2022-10-22T09:33:10;23.30;99.90
7972;DHT22;4031;49.758;6.120;2022-10-22T09:35:56;23.30;99.90
7972;DHT22;4031;49.758;6.120;2022-10-22T09:38:29;23.20;99.90
7972;DHT22;4031;49.758;6.120;2022-10-22T09:41:00;24.00;99.90
7972;DHT22;4031;49.758;6.120;2022-10-22T09:43:32;24.80;99.90
7972;DHT22;4031;49.758;6.120;2022-10-22T09:46:15;25.60;99.90
7972;DHT22;4031;49.758;6.120;2022-10-22T09:49:04;26.00;99.90
7972;DHT22;4031;49.758;6.120;2022-10-22T09:51:56;26.30;99.90
7972;DHT22;4031;49.758;6.120;2022-10-22T09:54:35;26.30;99.90
7972;DHT22;4031;49.758;6.120;2022-10-22T09:57:21;25.90;99.90
7972;DHT22;4031;49.758;6.120;2022-10-22T10:00:18;25.50;99.90
7972;DHT22;4031;49.758;6.120;2022-10-22T10:03:16;25.20;99.90
7972;DHT22;4031;49.758;6.120;2022-10-22T10:06:09;24.20;99.90
7972;DHT22;4031;49.758;6.120;2022-10-22T10:08:37;23.10;99.90
7972;DHT22;4031;49.758;6.120;2022-10-22T10:11:48;22.40;99.90
7972;DHT22;4031;49.758;6.120;2022-10-22T10:20:41;21.90;99.90
7972;DHT22;4031;49.758;6.120;2022-10-22T10:23:47;23.00;99.90
7972;DHT22;4031;49.758;6.120;2022-10-22T10:26:23;23.30;99.90
7972;DHT22;4031;49.758;6.120;2022-10-22T10:29:31;23.30;99.90
7972;DHT22;4031;49.758;6.120;2022-10-22T10:38:42;21.50;99.90
7972;DHT22;4031;49.758;6.120;2022-10-22T10:41:25;21.70;99.90
7972;DHT22;4031;49.758;6.120;2022-10-22T10:44:05;22.80;99.90
7972;DHT22;4031;49.758;6.120;2022-10-22T10:49:29;24.60;99.90
7972;DHT22;4031;49.758;6.120;2022-10-22T10:55:41;25.60;99.90
7972;DHT22;4031;49.758;6.120;2022-10-22T11:12:09;21.60;99.90
7972;DHT22;4031;49.758;6.120;2022-10-22T11:17:41;21.40;99.90
7972;DHT22;4031;49.758;6.120;2022-10-22T11:20:24;22.40;99.90
7972;DHT22;4031;49.758;6.120;2022-10-22T11:23:04;23.30;99.90
7972;DHT22;4031;49.758;6.120;2022-10-22T11:25:45;23.90;99.90
7972;DHT22;4031;49.758;6.120;2022-10-22T11:28:26;24.60;99.90
7972;DHT22;4031;49.758;6.120;2022-10-22T11:31:16;25.30;99.90
7972;DHT22;4031;49.758;6.120;2022-10-22T11:34:03;25.50;99.90
7972;DHT22;4031;49.758;6.120;2022-10-22T11:36:31;25.70;99.90
7972;DHT22;4031;49.758;6.120;2022-10-22T11:39:02;25.80;99.90
7972;DHT22;4031;49.758;6.120;2022-10-22T11:41:29;26.20;99.90
7972;DHT22;4031;49.758;6.120;2022-10-22T11:44:29;26.40;99.90
7972;DHT22;4031;49.758;6.120;2022-10-22T11:47:03;26.40;99.90
7972;DHT22;4031;49.758;6.120;2022-10-22T11:52:59;25.20;99.90
7972;DHT22;4031;49.758;6.120;2022-10-22T11:58:31;25.70;99.90
7972;DHT22;4031;49.758;6.120;2022-10-22T12:11:44;24.30;99.90
7972;DHT22;4031;49.758;6.120;2022-10-22T12:14:25;24.10;99.90
7972;DHT22;4031;49.758;6.120;2022-10-22T12:22:12;23.40;99.90
7972;DHT22;4031;49.758;6.120;2022-10-22T12:25:00;23.00;99.90
7972;DHT22;4031;49.758;6.120;2022-10-22T12:27:55;22.50;99.90
7972;DHT22;4031;49.758;6.120;2022-10-22T12:30:41;22.30;99.90
7972;DHT22;4031;49.758;6.120;2022-10-22T12:33:21;22.30;99.90
7972;DHT22;4031;49.758;6.120;2022-10-22T12:36:06;22.50;99.90
7972;DHT22;4031;49.758;6.120;2022-10-22T12:38:38;22.50;99.90
7972;DHT22;4031;49.758;6.120;2022-10-22T12:41:11;22.30;99.90
7972;DHT22;4031;49.758;6.120;2022-10-22T12:43:40;22.00;99.90
7972;DHT22;4031;49.758;6.120;2022-10-22T12:46:19;21.70;99.90
7972;DHT22;4031;49.758;6.120;2022-10-22T12:48:51;21.50;99.90
7972;DHT22;4031;49.758;6.120;2022-10-22T12:51:18;21.50;99.90
7972;DHT22;4031;49.758;6.120;2022-10-22T12:53:46;21.70;99.90
7972;DHT22;4031;49.758;6.120;2022-10-22T12:56:25;21.90;99.90
7972;DHT22;4031;49.758;6.120;2022-10-22T12:59:02;22.10;99.90
7972;DHT22;4031;49.758;6.120;2022-10-22T13:01:43;22.20;99.90
7972;DHT22;4031;49.758;6.120;2022-10-22T13:06:50;22.40;99.90
7972;DHT22;4031;49.758;6.120;2022-10-22T13:09:46;22.80;99.90
7972;DHT22;4031;49.758;6.120;2022-10-22T13:12:35;23.30;99.90
7972;DHT22;4031;49.758;6.120;2022-10-22T13:16:24;23.30;99.90
7972;DHT22;4031;49.758;6.120;2022-10-22T13:22:37;22.10;99.90
7972;DHT22;4031;49.758;6.120;2022-10-22T13:25:29;22.30;99.90
7972;DHT22;4031;49.758;6.120;2022-10-22T13:30:54;22.70;99.90
7972;DHT22;4031;49.758;6.120;2022-10-22T13:33:26;23.20;99.90
7972;DHT22;4031;49.758;6.120;2022-10-22T13:35:55;23.60;99.90
7972;DHT22;4031;49.758;6.120;2022-10-22T13:38:24;23.90;99.90
7972;DHT22;4031;49.758;6.120;2022-10-22T13:40:51;24.30;99.90
7972;DHT22;4031;49.758;6.120;2022-10-22T13:43:18;24.50;99.90
7972;DHT22;4031;49.758;6.120;2022-10-22T13:45:50;24.20;99.90
7972;DHT22;4031;49.758;6.120;2022-10-22T13:48:19;24.40;99.90
7972;DHT22;4031;49.758;6.120;2022-10-22T13:50:47;24.60;99.90
7972;DHT22;4031;49.758;6.120;2022-10-22T13:53:19;24.80;99.90
7972;DHT22;4031;49.758;6.120;2022-10-22T13:55:47;24.90;99.90
7972;DHT22;4031;49.758;6.120;2022-10-22T13:58:16;25.00;99.90
7972;DHT22;4031;49.758;6.120;2022-10-22T14:00:51;25.10;99.90
7972;DHT22;4031;49.758;6.120;2022-10-22T14:03:22;25.20;99.90
7972;DHT22;4031;49.758;6.120;2022-10-22T14:05:51;25.40;99.90
7972;DHT22;4031;49.758;6.120;2022-10-22T14:08:21;25.20;99.90
7972;DHT22;4031;49.758;6.120;2022-10-22T14:10:48;25.10;99.90
7972;DHT22;4031;49.758;6.120;2022-10-22T14:13:16;25.10;99.90
7972;DHT22;4031;49.758;6.120;2022-10-22T14:15:45;25.30;99.90
7972;DHT22;4031;49.758;6.120;2022-10-22T14:18:15;25.10;99.90
7972;DHT22;4031;49.758;6.120;2022-10-22T14:20:51;24.90;99.90
7972;DHT22;4031;49.758;6.120;2022-10-22T14:23:20;24.80;99.90
7972;DHT22;4031;49.758;6.120;2022-10-22T14:25:51;24.50;99.90
7972;DHT22;4031;49.758;6.120;2022-10-22T14:28:30;23.90;99.90
7972;DHT22;4031;49.758;6.120;2022-10-22T14:30:56;23.20;99.90
7972;DHT22;4031;49.758;6.120;2022-10-22T14:33:25;23.00;99.90
7972;DHT22;4031;49.758;6.120;2022-10-22T14:35:56;23.30;99.90
7972;DHT22;4031;49.758;6.120;2022-10-22T14:38:22;23.50;99.90
7972;DHT22;4031;49.758;6.120;2022-10-22T14:40:48;23.50;99.90
7972;DHT22;4031;49.758;6.120;2022-10-22T14:43:28;23.50;99.90
7972;DHT22;4031;49.758;6.120;2022-10-22T14:46:09;23.20;99.90
7972;DHT22;4031;49.758;6.120;2022-10-22T14:48:40;22.70;99.90
7972;DHT22;4031;49.758;6.120;2022-10-22T14:51:06;22.10;99.90
7972;DHT22;4031;49.758;6.120;2022-10-22T14:54:07;21.40;99.90
7972;DHT22;4031;49.758;6.120;2022-10-22T14:56:56;20.60;99.90
7972;DHT22;4031;49.758;6.120;2022-10-22T14:59:24;20.20;99.90
7972;DHT22;4031;49.758;6.120;2022-10-22T15:02:02;19.90;99.90
7972;DHT22;4031;49.758;6.120;2022-10-22T15:04:28;19.60;99.90
7972;DHT22;4031;49.758;6.120;2022-10-22T15:06:54;19.40;99.90
7972;DHT22;4031;49.758;6.120;2022-10-22T15:09:22;19.20;99.90
7972;DHT22;4031;49.758;6.120;2022-10-22T15:12:15;19.00;99.90
7972;DHT22;4031;49.758;6.120;2022-10-22T15:14:45;18.80;99.90
7972;DHT22;4031;49.758;6.120;2022-10-22T15:17:18;18.80;99.90
7972;DHT22;4031;49.758;6.120;2022-10-22T15:19:47;18.70;99.90
7972;DHT22;4031;49.758;6.120;2022-10-22T15:22:14;18.70;99.90
7972;DHT22;4031;49.758;6.120;2022-10-22T15:24:48;18.80;99.90
7972;DHT22;4031;49.758;6.120;2022-10-22T15:27:23;18.80;99.90
7972;DHT22;4031;49.758;6.120;2022-10-22T15:29:52;18.80;99.90
7972;DHT22;4031;49.758;6.120;2022-10-22T15:32:28;18.70;99.90
7972;DHT22;4031;49.758;6.120;2022-10-22T15:34:59;18.70;99.90
7972;DHT22;4031;49.758;6.120;2022-10-22T15:37:28;18.60;99.90
7972;DHT22;4031;49.758;6.120;2022-10-22T15:39:57;18.60;99.90
7972;DHT22;4031;49.758;6.120;2022-10-22T15:42:24;18.70;99.90
7972;DHT22;4031;49.758;6.120;2022-10-22T15:44:57;18.60;99.90
7972;DHT22;4031;49.758;6.120;2022-10-22T15:47:26;18.50;99.90
7972;DHT22;4031;49.758;6.120;2022-10-22T15:49:59;18.30;99.90
7972;DHT22;4031;49.758;6.120;2022-10-22T15:52:29;17.90;99.90
7972;DHT22;4031;49.758;6.120;2022-10-22T15:55:17;17.70;99.90
7972;DHT22;4031;49.758;6.120;2022-10-22T15:57:43;17.50;99.90
7972;DHT22;4031;49.758;6.120;2022-10-22T16:00:19;17.40;99.90
7972;DHT22;4031;49.758;6.120;2022-10-22T16:02:46;17.30;99.90
7972;DHT22;4031;49.758;6.120;2022-10-22T16:05:23;17.20;99.90
7972;DHT22;4031;49.758;6.120;2022-10-22T16:07:57;17.00;99.90
7972;DHT22;4031;49.758;6.120;2022-10-22T16:10:26;16.90;99.90
7972;DHT22;4031;49.758;6.120;2022-10-22T16:13:01;16.60;99.90
7972;DHT22;4031;49.758;6.120;2022-10-22T16:15:42;16.40;99.90
7972;DHT22;4031;49.758;6.120;2022-10-22T16:18:14;16.20;99.90
7972;DHT22;4031;49.758;6.120;2022-10-22T16:20:52;16.00;99.90
7972;DHT22;4031;49.758;6.120;2022-10-22T16:23:18;15.80;99.90
7972;DHT22;4031;49.758;6.120;2022-10-22T16:25:50;15.60;99.90
7972;DHT22;4031;49.758;6.120;2022-10-22T16:28:25;15.50;99.90
7972;DHT22;4031;49.758;6.120;2022-10-22T16:31:04;15.30;99.90
7972;DHT22;4031;49.758;6.120;2022-10-22T16:34:08;15.20;99.90
7972;DHT22;4031;49.758;6.120;2022-10-22T16:36:42;15.10;99.90
7972;DHT22;4031;49.758;6.120;2022-10-22T16:39:49;15.00;99.90
7972;DHT22;4031;49.758;6.120;2022-10-22T16:42:17;15.00;99.90
7972;DHT22;4031;49.758;6.120;2022-10-22T16:44:43;15.00;99.90
7972;DHT22;4031;49.758;6.120;2022-10-22T16:47:11;14.90;99.90
7972;DHT22;4031;49.758;6.120;2022-10-22T16:50:01;14.70;99.90
7972;DHT22;4031;49.758;6.120;2022-10-22T16:52:31;14.70;99.90
7972;DHT22;4031;49.758;6.120;2022-10-22T16:55:23;14.60;99.90
7972;DHT22;4031;49.758;6.120;2022-10-22T16:58:04;14.50;99.90
7972;DHT22;4031;49.758;6.120;2022-10-22T17:00:57;14.30;99.90
7972;DHT22;4031;49.758;6.120;2022-10-22T17:03:29;14.20;99.90
7972;DHT22;4031;49.758;6.120;2022-10-22T17:05:57;14.00;99.90
7972;DHT22;4031;49.758;6.120;2022-10-22T17:08:42;13.90;99.90
7972;DHT22;4031;49.758;6.120;2022-10-22T17:11:11;13.80;99.90
7972;DHT22;4031;49.758;6.120;2022-10-22T17:13:41;13.60;99.90
7972;DHT22;4031;49.758;6.120;2022-10-22T17:16:25;13.50;99.90
7972;DHT22;4031;49.758;6.120;2022-10-22T17:19:11;13.40;99.90
7972;DHT22;4031;49.758;6.120;2022-10-22T17:21:54;13.30;99.90
7972;DHT22;4031;49.758;6.120;2022-10-22T17:24:25;13.20;99.90
7972;DHT22;4031;49.758;6.120;2022-10-22T17:27:06;13.20;99.90
7972;DHT22;4031;49.758;6.120;2022-10-22T17:30:23;13.10;99.90
7972;DHT22;4031;49.758;6.120;2022-10-22T17:32:50;13.10;99.90
7972;DHT22;4031;49.758;6.120;2022-10-22T17:35:38;13.10;99.90
7972;DHT22;4031;49.758;6.120;2022-10-22T17:38:21;13.00;99.90
7972;DHT22;4031;49.758;6.120;2022-10-22T17:41:02;12.90;99.90
7972;DHT22;4031;49.758;6.120;2022-10-22T17:43:37;12.80;99.90
7972;DHT22;4031;49.758;6.120;2022-10-22T17:46:10;12.80;99.90
7972;DHT22;4031;49.758;6.120;2022-10-22T17:48:49;12.70;99.90
7972;DHT22;4031;49.758;6.120;2022-10-22T17:51:44;12.70;99.90
7972;DHT22;4031;49.758;6.120;2022-10-22T17:54:24;12.60;99.90
7972;DHT22;4031;49.758;6.120;2022-10-22T17:57:15;12.60;99.90
7972;DHT22;4031;49.758;6.120;2022-10-22T17:59:53;12.50;99.90
7972;DHT22;4031;49.758;6.120;2022-10-22T18:02:34;12.50;99.90
7972;DHT22;4031;49.758;6.120;2022-10-22T18:05:23;12.50;99.90
7972;DHT22;4031;49.758;6.120;2022-10-22T18:08:12;12.40;99.90
7972;DHT22;4031;49.758;6.120;2022-10-22T18:10:50;12.40;99.90
7972;DHT22;4031;49.758;6.120;2022-10-22T18:13:16;12.40;99.90
7972;DHT22;4031;49.758;6.120;2022-10-22T18:15:54;12.40;99.90
7972;DHT22;4031;49.758;6.120;2022-10-22T18:19:00;12.30;99.90
7972;DHT22;4031;49.758;6.120;2022-10-22T18:21:30;12.30;99.90